< < Back
Terminal Aerodrome Forecast


Current Version              Previous Versions:   1  2  3  4  5  6  7  8  9  

Terminal Aerodrome Forecast

111
FTUS42 KILM 050522
TAFFLO
TAF
KFLO 050522Z 0506/0606 22006KT P6SM VCSH SCT050 SCT250
     FM051600 21008KT P6SM VCTS BKN050CB=

Latest METAR

662
SAUS70 KWBC 051200 RRH
MTRFLO
METAR KFLO 051153Z 22006KT 10SM CLR 24/21 A3013 RMK AO2 SLP200 T02390211
10244 20217 51014


USA.gov is the U.S. government's official web portal to all federal, state and local government web resources and services.